createdAt,value
2019-01-17T00:00:10.967Z,97126.25
2019-01-17T00:02:55.883Z,97117.67
2019-01-17T00:05:34.757Z,97115.48
2019-01-17T00:08:21.347Z,97118.08
2019-01-17T00:11:08.130Z,97119.47
2019-01-17T00:14:04.833Z,97119.12
2019-01-17T00:17:03.078Z,97112.50
2019-01-17T00:19:49.868Z,97116.05
2019-01-17T00:22:42.624Z,97113.87
2019-01-17T00:25:27.678Z,97113.95
2019-01-17T00:28:05.667Z,97105.76
2019-01-17T00:30:56.464Z,97104.34
2019-01-17T00:33:37.078Z,97101.27
2019-01-17T00:36:27.902Z,97102.00
2019-01-17T00:39:14.469Z,97091.87
2019-01-17T00:42:02.570Z,97098.98
2019-01-17T00:44:48.343Z,97100.86
2019-01-17T00:47:36.238Z,97089.13
2019-01-17T00:50:29.249Z,97101.41
2019-01-17T00:53:12.256Z,97097.47
2019-01-17T00:55:55.208Z,97099.03
2019-01-17T00:58:46.187Z,97097.13
2019-01-17T01:01:33.145Z,97103.47
2019-01-17T01:04:27.036Z,97109.85
2019-01-17T01:07:21.211Z,97116.73
2019-01-17T01:10:04.129Z,97109.85
2019-01-17T01:12:51.193Z,97121.92
2019-01-17T01:15:39.125Z,97124.89
2019-01-17T01:18:19.411Z,97123.70
2019-01-17T01:21:07.087Z,97135.86
2019-01-17T01:23:53.969Z,97130.70
2019-01-17T01:26:41.975Z,97144.26
2019-01-17T01:29:47.813Z,97131.77
2019-01-17T01:32:24.693Z,97126.09
2019-01-17T01:35:12.579Z,97143.33
2019-01-17T01:38:01.554Z,97146.89
2019-01-17T01:40:48.731Z,97148.27
2019-01-17T01:43:39.664Z,97159.93
2019-01-17T01:46:45.572Z,97151.61
2019-01-17T01:49:26.175Z,97154.62
2019-01-17T01:52:32.226Z,97162.50
2019-01-17T01:55:01.164Z,97164.72
2019-01-17T01:57:30.034Z,97177.20
2019-01-17T01:59:58.905Z,97165.43
2019-01-17T02:02:27.923Z,97147.27
2019-01-17T02:04:56.955Z,97141.69
2019-01-17T02:07:26.203Z,97131.33
2019-01-17T02:09:55.148Z,97132.59
2019-01-17T02:12:24.058Z,97128.62
2019-01-17T02:14:52.958Z,97112.98
2019-01-17T02:17:21.882Z,97115.50
2019-01-17T02:19:50.664Z,97109.28
2019-01-17T02:22:19.829Z,97112.37
2019-01-17T02:24:48.763Z,97118.88
2019-01-17T02:27:17.650Z,97111.11
2019-01-17T02:29:46.630Z,97108.62
2019-01-17T02:32:15.426Z,97109.97
2019-01-17T02:34:44.391Z,97097.66
2019-01-17T02:37:15.719Z,97100.67
2019-01-17T02:39:44.591Z,97101.45
2019-01-17T02:42:13.472Z,97100.19
2019-01-17T02:44:54.101Z,97080.68
2019-01-17T02:47:23.015Z,97078.84
2019-01-17T02:49:51.903Z,97081.49
2019-01-17T02:52:20.921Z,97080.14
2019-01-17T02:54:49.866Z,97076.57
2019-01-17T02:57:18.819Z,97071.78
2019-01-17T02:59:47.826Z,97071.86
2019-01-17T03:02:16.649Z,97067.27
2019-01-17T03:04:45.521Z,97051.63
2019-01-17T03:07:14.415Z,97041.67
2019-01-17T03:09:43.354Z,97046.42
2019-01-17T03:12:12.234Z,97037.47
2019-01-17T03:14:41.227Z,97048.11
2019-01-17T03:17:10.236Z,97042.00
2019-01-17T03:19:39.123Z,97052.41
2019-01-17T03:22:08.162Z,97045.95
2019-01-17T03:24:43.002Z,97043.30
2019-01-17T03:27:07.825Z,97045.09
2019-01-17T03:29:36.740Z,97046.36
2019-01-17T03:32:05.804Z,97053.22
2019-01-17T03:34:35.161Z,97025.50
2019-01-17T03:37:04.050Z,97016.89
2019-01-17T03:39:33.107Z,97017.88
2019-01-17T03:42:02.022Z,97013.20
2019-01-17T03:44:30.927Z,97017.83
2019-01-17T03:47:00.180Z,97034.83
2019-01-17T03:49:29.009Z,97033.58
2019-01-17T03:51:57.907Z,97024.06
2019-01-17T03:54:26.956Z,97031.42
2019-01-17T03:56:55.809Z,97025.36
2019-01-17T03:59:24.888Z,97032.27
2019-01-17T04:01:53.874Z,97050.48
2019-01-17T04:04:22.852Z,97035.04
2019-01-17T04:06:51.713Z,97052.84
2019-01-17T04:09:20.625Z,97055.44
2019-01-17T04:11:49.567Z,97052.72
2019-01-17T04:14:18.442Z,97055.44
2019-01-17T04:16:47.233Z,97063.64
2019-01-17T04:19:16.176Z,97069.17
2019-01-17T04:21:45.049Z,97070.44
2019-01-17T04:24:14.086Z,97078.16
2019-01-17T04:26:43.303Z,97072.55
2019-01-17T04:29:12.247Z,97078.56
2019-01-17T04:31:41.307Z,97087.17
2019-01-17T04:34:10.359Z,97090.55
2019-01-17T04:36:39.358Z,97094.08
2019-01-17T04:39:08.441Z,97082.82
2019-01-17T04:41:37.325Z,97093.23
2019-01-17T04:44:06.605Z,97093.14
2019-01-17T04:46:35.645Z,97102.13
2019-01-17T04:49:04.636Z,97092.17
2019-01-17T04:51:33.952Z,97100.82
2019-01-17T04:54:02.922Z,97093.92
2019-01-17T04:56:31.977Z,97092.20
2019-01-17T04:59:00.883Z,97094.72
2019-01-17T05:01:29.805Z,97094.59
2019-01-17T05:03:58.658Z,97098.95
2019-01-17T05:06:27.616Z,97101.23
2019-01-17T05:08:56.608Z,97109.77
2019-01-17T05:11:25.535Z,97114.56
2019-01-17T05:13:54.379Z,97118.06
2019-01-17T05:16:23.203Z,97119.36
2019-01-17T05:18:52.215Z,97116.43
2019-01-17T05:21:21.298Z,97119.94
2019-01-17T05:23:50.185Z,97123.06
2019-01-17T05:26:19.023Z,97119.24
2019-01-17T05:28:47.954Z,97117.58
2019-01-17T05:31:44.020Z,97119.70
2019-01-17T05:34:12.863Z,97110.50
2019-01-17T05:36:41.688Z,97114.03
2019-01-17T05:39:10.652Z,97124.48
2019-01-17T05:41:39.573Z,97123.59
2019-01-17T05:44:08.546Z,97121.48
2019-01-17T05:46:37.341Z,97122.86
2019-01-17T05:49:06.292Z,97120.59
2019-01-17T05:51:35.164Z,97123.67
2019-01-17T05:54:04.191Z,97109.94
2019-01-17T05:56:33.077Z,97113.02
2019-01-17T05:59:01.823Z,97107.02
2019-01-17T06:01:30.811Z,97093.61
2019-01-17T06:03:59.580Z,97096.28
2019-01-17T06:06:33.081Z,97107.63
2019-01-17T06:08:59.327Z,97105.17
2019-01-17T06:11:28.188Z,97105.02
2019-01-17T06:13:56.964Z,97105.91
2019-01-17T06:16:25.803Z,97108.59
2019-01-17T06:18:54.792Z,97107.00
2019-01-17T06:21:23.662Z,97101.44
2019-01-17T06:23:52.515Z,97096.60
2019-01-17T06:26:21.561Z,97101.80
2019-01-17T06:28:50.356Z,97101.47
2019-01-17T06:31:19.280Z,97097.13
2019-01-17T06:33:48.179Z,97092.38
2019-01-17T06:36:16.999Z,97086.73
2019-01-17T06:38:46.042Z,97091.00
2019-01-17T06:41:15.817Z,97085.39
2019-01-17T06:43:44.644Z,97076.16
2019-01-17T06:46:13.690Z,97088.64
2019-01-17T06:48:42.551Z,97086.48
2019-01-17T06:51:12.753Z,97082.67
2019-01-17T06:53:41.704Z,97089.57
2019-01-17T06:56:10.632Z,97085.11
2019-01-17T06:58:39.634Z,97099.41
2019-01-17T07:01:08.767Z,97113.79
2019-01-17T07:03:38.052Z,97103.88
2019-01-17T07:06:07.195Z,97105.70
2019-01-17T07:08:36.101Z,97105.70
2019-01-17T07:11:05.066Z,97104.48
2019-01-17T07:13:34.193Z,97113.98
2019-01-17T07:16:04.969Z,97114.88
2019-01-17T07:18:33.962Z,97108.02
2019-01-17T07:21:03.115Z,97116.22
2019-01-17T07:23:32.467Z,97104.67
2019-01-17T07:26:01.433Z,97108.57
2019-01-17T07:28:30.496Z,97108.12
2019-01-17T07:30:59.700Z,97105.16
2019-01-17T07:33:28.867Z,97116.89
2019-01-17T07:35:57.998Z,97109.09
2019-01-17T07:38:28.362Z,97115.14
2019-01-17T07:40:58.317Z,97113.80
2019-01-17T07:43:28.338Z,97111.73
2019-01-17T07:45:57.325Z,97117.33
2019-01-17T07:48:26.560Z,97118.19
2019-01-17T07:50:55.850Z,97122.57
2019-01-17T07:53:25.380Z,97116.00
2019-01-17T07:55:54.849Z,97109.95
2019-01-17T07:58:27.582Z,97124.66
2019-01-17T08:00:57.841Z,97122.02
2019-01-17T08:03:27.970Z,97120.67
2019-01-17T08:05:58.185Z,97112.84
2019-01-17T08:08:30.242Z,97108.49
2019-01-17T08:10:59.995Z,97117.52
2019-01-17T08:13:38.381Z,97118.81
2019-01-17T08:16:08.809Z,97114.03
2019-01-17T08:18:42.786Z,97122.67
2019-01-17T08:21:26.038Z,97116.17
2019-01-17T08:23:57.278Z,97112.20
2019-01-17T08:26:37.498Z,97116.10
2019-01-17T08:29:14.157Z,97119.11
2019-01-17T08:31:48.651Z,97117.41
2019-01-17T08:34:18.015Z,97111.27
2019-01-17T08:36:47.201Z,97134.15
2019-01-17T08:39:26.617Z,97133.18
2019-01-17T08:41:55.956Z,97134.92
2019-01-17T08:44:25.416Z,97140.57
2019-01-17T08:46:55.045Z,97133.55
2019-01-17T08:49:24.441Z,97127.94
2019-01-17T08:51:53.754Z,97124.97
2019-01-17T08:54:23.182Z,97120.14
2019-01-17T08:56:52.485Z,97137.45
2019-01-17T08:59:21.712Z,97137.81
2019-01-17T09:01:51.083Z,97138.22
2019-01-17T09:04:20.399Z,97131.64
2019-01-17T09:06:50.618Z,97138.52
2019-01-17T09:09:19.832Z,97135.66
2019-01-17T09:11:48.930Z,97124.48
2019-01-17T09:14:18.238Z,97113.67
2019-01-17T09:16:47.110Z,97102.73
2019-01-17T09:19:16.343Z,97113.96
2019-01-17T09:21:45.619Z,97122.94
2019-01-17T09:24:14.961Z,97126.22
2019-01-17T09:26:44.470Z,97124.76
2019-01-17T09:29:32.795Z,97125.80
2019-01-17T09:35:33.515Z,97141.52
2019-01-17T09:38:02.677Z,97145.86
2019-01-17T09:40:33.146Z,97158.36
2019-01-17T09:43:03.199Z,97147.58
2019-01-17T09:45:35.382Z,97148.80
2019-01-17T09:48:05.429Z,97133.74
2019-01-17T09:50:38.753Z,97130.56
2019-01-17T09:53:08.694Z,97144.39
2019-01-17T09:55:38.373Z,97143.53
2019-01-17T09:58:28.550Z,97143.41
2019-01-17T10:00:58.488Z,97158.13
2019-01-17T10:03:29.578Z,97143.81
2019-01-17T10:05:59.252Z,97132.48
2019-01-17T10:08:31.486Z,97132.50
2019-01-17T10:11:02.578Z,97129.88
2019-01-17T10:13:32.540Z,97127.27
2019-01-17T10:16:53.267Z,97120.77
2019-01-17T10:20:17.355Z,97136.80
2019-01-17T10:23:26.292Z,97133.70
2019-01-17T10:26:38.132Z,97132.40
2019-01-17T10:29:51.768Z,97129.44
2019-01-17T10:33:11.094Z,97133.30
2019-01-17T10:35:57.908Z,97131.59
2019-01-17T10:38:46.877Z,97139.00
2019-01-17T10:41:29.010Z,97126.03
2019-01-17T10:44:36.114Z,97122.06
2019-01-17T10:47:29.299Z,97120.31
2019-01-17T10:50:32.145Z,97117.27
2019-01-17T10:53:56.792Z,97114.27
2019-01-17T10:56:46.092Z,97112.06
2019-01-17T10:59:44.787Z,97102.99
2019-01-17T11:02:54.393Z,97099.63
2019-01-17T11:05:52.655Z,97099.48
2019-01-17T11:08:56.591Z,97103.48
2019-01-17T11:12:06.841Z,97098.81
2019-01-17T11:15:09.855Z,97096.80
2019-01-17T11:18:22.434Z,97094.64
2019-01-17T11:21:36.926Z,97083.52
2019-01-17T11:24:44.859Z,97087.07
2019-01-17T11:27:45.440Z,97085.45
2019-01-17T11:30:54.678Z,97088.14
2019-01-17T11:34:07.713Z,97075.58
2019-01-17T11:37:14.924Z,97063.55
2019-01-17T11:40:20.306Z,97069.70
2019-01-17T11:43:17.271Z,97076.70
2019-01-17T11:46:02.569Z,97070.50
2019-01-17T11:49:11.666Z,97064.63
2019-01-17T11:52:25.967Z,97062.34
2019-01-17T11:55:22.883Z,97056.45
2019-01-17T11:58:30.752Z,97065.52
2019-01-17T12:01:47.408Z,97059.20
2019-01-17T12:04:37.640Z,97050.98
2019-01-17T12:07:12.833Z,97045.24
2019-01-17T12:09:42.023Z,97044.88
2019-01-17T12:12:13.651Z,97046.08
2019-01-17T12:14:43.679Z,97044.88
2019-01-17T12:17:13.608Z,97040.16
2019-01-17T12:19:42.994Z,97040.82
2019-01-17T12:22:12.145Z,97038.48
2019-01-17T12:24:41.201Z,97034.63
2019-01-17T12:27:10.294Z,97026.01
2019-01-17T12:29:39.942Z,97022.74
2019-01-17T12:32:11.419Z,97021.13
2019-01-17T12:35:14.536Z,97016.34
2019-01-17T12:37:44.201Z,97020.23
2019-01-17T12:40:15.145Z,97019.82
2019-01-17T12:42:44.315Z,97016.64
2019-01-17T12:45:13.965Z,97008.42
2019-01-17T12:47:45.129Z,97008.42
2019-01-17T12:50:17.680Z,97001.55
2019-01-17T12:52:47.080Z,97002.36
2019-01-17T12:55:16.759Z,96999.22
2019-01-17T12:57:45.948Z,97000.17
2019-01-17T13:00:20.862Z,96998.02
2019-01-17T13:02:50.404Z,96994.67
2019-01-17T13:05:19.581Z,96987.75
2019-01-17T13:07:48.678Z,96994.77
2019-01-17T13:10:18.482Z,96984.91
2019-01-17T13:12:47.747Z,96980.14
2019-01-17T13:15:16.917Z,96978.13
2019-01-17T13:17:46.066Z,96974.58
2019-01-17T13:20:16.854Z,96978.33
2019-01-17T13:22:45.994Z,96974.09
2019-01-17T13:25:18.105Z,96967.42
2019-01-17T13:27:47.198Z,96956.60
2019-01-17T13:30:18.594Z,96957.41
2019-01-17T13:32:48.422Z,96962.46
2019-01-17T13:35:18.737Z,96968.83
2019-01-17T13:37:48.414Z,96959.90
2019-01-17T13:40:22.105Z,96960.44
2019-01-17T13:42:51.401Z,96946.70
2019-01-17T13:45:21.574Z,96946.94
2019-01-17T13:47:51.481Z,96943.83
2019-01-17T13:50:21.165Z,96944.16
2019-01-17T13:52:50.950Z,96940.52
2019-01-17T13:55:20.669Z,96937.98
2019-01-17T13:57:51.250Z,96935.43
2019-01-17T14:00:23.730Z,96933.27
2019-01-17T14:02:53.411Z,96933.67
2019-01-17T14:05:23.017Z,96936.23
2019-01-17T14:07:52.681Z,96933.91
2019-01-17T14:10:22.164Z,96918.91
2019-01-17T14:12:51.874Z,96921.00
2019-01-17T14:15:24.151Z,96926.02
2019-01-17T14:17:54.517Z,96927.33
2019-01-17T14:20:24.112Z,96917.70
2019-01-17T14:22:53.817Z,96932.60
2019-01-17T14:25:23.238Z,96920.65
2019-01-17T14:27:52.805Z,96926.36
2019-01-17T14:30:32.630Z,96922.00
2019-01-17T14:33:01.739Z,96914.36
2019-01-17T14:35:31.384Z,96910.22
2019-01-17T14:38:01.302Z,96904.33
2019-01-17T14:40:30.865Z,96902.78
2019-01-17T14:43:00.330Z,96904.15
2019-01-17T14:45:30.337Z,96901.24
2019-01-17T14:48:00.091Z,96899.37
2019-01-17T14:50:31.597Z,96904.53
2019-01-17T14:53:01.494Z,96913.27
2019-01-17T14:55:30.943Z,96909.86
2019-01-17T14:58:00.527Z,96904.65
2019-01-17T15:00:31.855Z,96906.75
2019-01-17T15:03:01.614Z,96907.42
2019-01-17T15:05:31.014Z,96913.28
2019-01-17T15:08:01.166Z,96903.92
2019-01-17T15:10:37.938Z,96908.39
2019-01-17T15:13:09.766Z,96904.23
2019-01-17T15:15:39.954Z,96911.34
2019-01-17T15:18:10.799Z,96907.70
2019-01-17T15:20:40.745Z,96903.98
2019-01-17T15:23:11.753Z,96906.09
2019-01-17T15:25:41.909Z,96902.63
2019-01-17T15:28:11.261Z,96915.65
2019-01-17T15:30:42.276Z,96906.59
2019-01-17T15:33:12.223Z,96894.03
2019-01-17T15:35:42.197Z,96898.14
2019-01-17T15:38:12.713Z,96897.88
2019-01-17T15:40:43.179Z,96886.16
2019-01-17T15:43:14.129Z,96893.97
2019-01-17T15:45:44.013Z,96881.27
2019-01-17T15:48:14.065Z,96893.33
2019-01-17T15:50:43.999Z,96901.14
2019-01-17T15:53:16.347Z,96905.50
2019-01-17T15:55:49.174Z,96906.80
2019-01-17T15:58:18.096Z,96915.44
2019-01-17T16:00:47.248Z,96918.45
2019-01-17T16:03:16.262Z,96917.19
2019-01-17T16:05:45.473Z,96922.09
2019-01-17T16:08:14.824Z,96929.91
2019-01-17T16:10:43.791Z,96920.76
2019-01-17T16:13:12.654Z,96929.82
2019-01-17T16:15:42.269Z,96937.17
2019-01-17T16:18:11.114Z,96943.67
2019-01-17T16:20:40.291Z,96941.12
2019-01-17T16:23:09.363Z,96946.02
2019-01-17T16:25:38.420Z,96954.64
2019-01-17T16:28:07.345Z,96975.10
2019-01-17T16:30:36.308Z,97003.70
2019-01-17T16:33:05.673Z,97037.07
2019-01-17T16:35:35.405Z,97045.80
2019-01-17T16:38:04.383Z,97037.23
2019-01-17T16:40:34.253Z,97043.87
2019-01-17T16:43:04.229Z,97054.23
2019-01-17T16:45:35.657Z,97072.34
2019-01-17T16:48:08.947Z,97053.28
2019-01-17T16:50:39.113Z,97059.42
2019-01-17T16:53:08.927Z,97072.41
2019-01-17T16:55:38.347Z,97076.27
2019-01-17T16:58:08.066Z,97077.95
2019-01-17T17:00:43.817Z,97077.36
2019-01-17T17:03:13.328Z,97095.02
2019-01-17T17:05:43.247Z,97099.78
2019-01-17T17:08:13.254Z,97099.46
2019-01-17T17:10:43.092Z,97094.80
2019-01-17T17:13:12.556Z,97109.59
2019-01-17T17:15:44.193Z,97116.53
2019-01-17T17:18:13.641Z,97115.72
2019-01-17T17:20:43.130Z,97122.73
2019-01-17T17:23:13.235Z,97120.61
2019-01-17T17:25:43.023Z,97133.55
2019-01-17T17:28:12.652Z,97135.63
2019-01-17T17:30:46.476Z,97139.52
2019-01-17T17:33:21.136Z,97143.41
2019-01-17T17:35:55.128Z,97154.28
2019-01-17T17:38:33.950Z,97163.34
2019-01-17T17:41:03.078Z,97175.06
2019-01-17T17:43:32.257Z,97185.88
2019-01-17T17:46:01.182Z,97203.97
2019-01-17T17:48:30.056Z,97206.52
2019-01-17T17:50:58.909Z,97208.20
2019-01-17T17:53:27.768Z,97220.25
2019-01-17T17:55:56.693Z,97219.83
2019-01-17T17:58:41.349Z,97222.77
2019-01-17T18:01:31.667Z,97226.72
2019-01-17T18:04:14.068Z,97234.96
2019-01-17T18:06:56.785Z,97236.28
2019-01-17T18:09:43.529Z,97240.19
2019-01-17T18:12:13.092Z,97237.23
2019-01-17T18:14:44.919Z,97240.28
2019-01-17T18:17:14.454Z,97248.06
2019-01-17T18:19:44.070Z,97256.31
2019-01-17T18:22:13.559Z,97246.39
2019-01-17T18:24:43.379Z,97257.58
2019-01-17T18:27:12.702Z,97260.20
2019-01-17T18:29:42.289Z,97269.70
2019-01-17T18:32:11.508Z,97281.84
2019-01-17T18:34:41.007Z,97277.55
2019-01-17T18:37:10.610Z,97286.99
2019-01-17T18:39:40.313Z,97284.82
2019-01-17T18:42:09.560Z,97288.63
2019-01-17T18:44:38.501Z,97284.77
2019-01-17T18:47:07.515Z,97295.13
2019-01-17T18:49:36.387Z,97296.39
2019-01-17T18:52:05.357Z,97307.59
2019-01-17T18:54:34.166Z,97312.73
2019-01-17T18:57:03.470Z,97316.56
2019-01-17T18:59:32.471Z,97325.23
2019-01-17T19:02:01.466Z,97320.51
2019-01-17T19:04:31.743Z,97334.75
2019-01-17T19:07:01.149Z,97338.26
2019-01-17T19:09:30.418Z,97350.83
2019-01-17T19:11:59.419Z,97356.05
2019-01-17T19:14:30.110Z,97362.14
2019-01-17T19:16:59.369Z,97376.80
2019-01-17T19:19:28.288Z,97376.77
2019-01-17T19:21:57.621Z,97388.81
2019-01-17T19:24:26.962Z,97390.51
2019-01-17T19:26:57.374Z,97395.74
2019-01-17T19:29:26.391Z,97408.70
2019-01-17T19:31:55.543Z,97405.21
2019-01-17T19:34:24.654Z,97395.74
2019-01-17T19:36:53.695Z,97401.36
2019-01-17T19:39:22.718Z,97398.38
2019-01-17T19:41:51.826Z,97404.50
2019-01-17T19:44:21.562Z,97395.94
2019-01-17T19:46:50.699Z,97410.66
2019-01-17T19:49:19.948Z,97413.27
2019-01-17T19:51:48.933Z,97418.47
2019-01-17T19:54:17.797Z,97415.45
2019-01-17T19:56:46.675Z,97422.41
2019-01-17T19:59:15.607Z,97425.42
2019-01-17T20:01:44.532Z,97431.03
2019-01-17T20:04:13.712Z,97433.63
2019-01-17T20:06:42.697Z,97440.99
2019-01-17T20:09:14.128Z,97447.03
2019-01-17T20:11:42.981Z,97458.21
2019-01-17T20:14:12.007Z,97462.08
2019-01-17T20:16:40.984Z,97473.69
2019-01-17T20:19:10.093Z,97468.48
2019-01-17T20:21:38.969Z,97471.92
2019-01-17T20:24:08.072Z,97477.48
2019-01-17T20:26:37.085Z,97487.45
2019-01-17T20:29:06.003Z,97491.80
2019-01-17T20:31:35.261Z,97494.44
2019-01-17T20:34:04.337Z,97505.66
2019-01-17T20:36:33.510Z,97513.84
2019-01-17T20:39:02.602Z,97526.36
2019-01-17T20:41:31.713Z,97527.66
2019-01-17T20:44:01.680Z,97529.84
2019-01-17T20:46:31.064Z,97535.43
2019-01-17T20:49:00.273Z,97538.43
2019-01-17T20:51:29.420Z,97540.61
2019-01-17T20:53:58.356Z,97540.59
2019-01-17T20:56:27.337Z,97543.59
2019-01-17T20:58:56.197Z,97546.63
2019-01-17T21:01:51.805Z,97557.38
2019-01-17T21:04:20.799Z,97558.24
2019-01-17T21:06:49.813Z,97564.27
2019-01-17T21:09:18.687Z,97565.98
2019-01-17T21:11:47.586Z,97570.32
2019-01-17T21:14:16.509Z,97571.17
2019-01-17T21:16:45.341Z,97564.30
2019-01-17T21:19:14.465Z,97572.48
2019-01-17T21:21:43.380Z,97575.50
2019-01-17T21:24:12.169Z,97581.55
2019-01-17T21:26:41.089Z,97586.28
2019-01-17T21:29:09.886Z,97582.84
2019-01-17T21:31:38.872Z,97593.58
2019-01-17T21:34:08.019Z,97591.87
2019-01-17T21:36:36.876Z,97594.44
2019-01-17T21:39:08.080Z,97600.47
2019-01-17T21:41:38.167Z,97595.72
2019-01-17T21:44:07.103Z,97599.14
2019-01-17T21:46:36.149Z,97597.84
2019-01-17T21:49:05.249Z,97602.15
2019-01-17T21:51:34.323Z,97601.73
2019-01-17T21:54:03.413Z,97605.59
2019-01-17T21:56:33.477Z,97607.30
2019-01-17T21:59:02.376Z,97603.85
2019-01-17T22:01:31.338Z,97599.98
2019-01-17T22:04:00.296Z,97606.86
2019-01-17T22:06:29.241Z,97602.16
2019-01-17T22:08:58.430Z,97612.91
2019-01-17T22:11:27.461Z,97609.93
2019-01-17T22:13:56.452Z,97618.13
2019-01-17T22:16:25.355Z,97623.72
2019-01-17T22:18:54.253Z,97629.78
2019-01-17T22:21:50.291Z,97630.63
2019-01-17T22:24:19.555Z,97632.77
2019-01-17T22:26:48.512Z,97621.55
2019-01-17T22:29:19.384Z,97620.71
2019-01-17T22:31:48.375Z,97626.33
2019-01-17T22:34:17.419Z,97628.91
2019-01-17T22:36:46.232Z,97635.81
2019-01-17T22:39:15.180Z,97643.11
2019-01-17T22:41:44.130Z,97638.37
2019-01-17T22:44:13.074Z,97648.72
2019-01-17T22:46:41.917Z,97662.04
2019-01-17T22:49:10.819Z,97659.03
2019-01-17T22:51:39.823Z,97660.75
2019-01-17T22:54:08.906Z,97667.64
2019-01-17T22:56:37.851Z,97672.84
2019-01-17T22:59:09.379Z,97684.44
2019-01-17T23:01:37.542Z,97677.98
2019-01-17T23:04:07.174Z,97684.47
2019-01-17T23:06:36.260Z,97683.17
2019-01-17T23:09:07.975Z,97684.49
2019-01-17T23:11:37.043Z,97685.38
2019-01-17T23:14:06.210Z,97690.55
2019-01-17T23:16:35.382Z,97693.13
2019-01-17T23:19:04.708Z,97702.20
2019-01-17T23:21:33.579Z,97702.20
2019-01-17T23:24:02.547Z,97714.70
2019-01-17T23:26:31.570Z,97714.28
2019-01-17T23:29:00.482Z,97714.25
2019-01-17T23:31:30.694Z,97718.98
2019-01-17T23:33:59.590Z,97728.01
2019-01-17T23:36:28.653Z,97723.27
2019-01-17T23:38:57.624Z,97728.88
2019-01-17T23:41:27.753Z,97730.59
2019-01-17T23:43:56.730Z,97742.23
2019-01-17T23:46:25.575Z,97741.33
2019-01-17T23:48:54.467Z,97748.66
2019-01-17T23:51:23.489Z,97749.52
2019-01-17T23:53:52.475Z,97747.36
2019-01-17T23:56:21.438Z,97751.23
2019-01-17T23:58:50.427Z,97747.33
